Time;durP1;ratioP1;P1;durP2;ratioP2;P2;SDS_P1;SDS_P2;PMS_P1;PMS_P2;Temp;Humidity;BMP_temperature;BMP_pressure;BME280_temperature;BME280_humidity;BME280_pressure;Samples;Min_cycle;Max_cycle;Signal;HPM_P1;HPM_P2
2023/01/26 00:00:35;;;;;;;114.20;59.87;;;;;;;-1.07;100.00;102460.25;5273804;28;20082;-75
2023/01/26 00:03:07;;;;;;;109.83;55.50;;;;;;;-1.18;100.00;102452.34;5274440;28;20029;-75
2023/01/26 00:05:38;;;;;;;112.10;57.00;;;;;;;-1.27;100.00;102442.78;5275921;28;20039;-76
2023/01/26 00:08:11;;;;;;;108.90;59.47;;;;;;;-1.07;100.00;102460.25;5271568;28;20158;-73
2023/01/26 00:10:49;;;;;;;110.73;55.97;;;;;;;-1.03;100.00;102449.16;5274299;28;20045;-76
2023/01/26 00:13:21;;;;;;;108.20;60.27;;;;;;;-1.01;100.00;102448.34;5274886;28;20506;-73
2023/01/26 00:15:52;;;;;;;108.03;54.23;;;;;;;-0.99;100.00;102445.78;5276079;28;20028;-77
2023/01/26 00:18:24;;;;;;;97.33;53.37;;;;;;;-1.02;100.00;102436.34;5276081;28;20650;-73
2023/01/26 00:20:56;;;;;;;100.87;54.30;;;;;;;-0.97;100.00;102436.38;5275598;28;20480;-76
2023/01/26 00:23:30;;;;;;;101.17;53.43;;;;;;;-1.14;100.00;102433.56;5276010;28;20024;-76
2023/01/26 00:26:04;;;;;;;105.27;53.30;;;;;;;-1.17;100.00;102433.53;5288991;28;20024;-76
2023/01/26 00:28:35;;;;;;;105.13;56.42;;;;;;;-1.07;100.00;102427.69;5275764;28;20456;-73
2023/01/26 00:31:12;;;;;;;101.50;52.90;;;;;;;-1.00;100.00;102426.06;5291123;28;20109;-76
2023/01/26 00:33:43;;;;;;;97.77;56.13;;;;;;;-1.08;100.00;102420.78;5275839;28;20074;-74
2023/01/26 00:36:15;;;;;;;98.57;51.97;;;;;;;-1.01;100.00;102422.63;5274025;28;20286;-75
2023/01/26 00:38:46;;;;;;;100.23;56.47;;;;;;;-1.15;100.00;102416.44;5275509;28;20029;-76
2023/01/26 00:44:07;;;;;;;95.90;52.10;;;;;;;-1.11;100.00;102415.59;5264571;28;20037;-76
2023/01/26 00:46:39;;;;;;;90.43;52.10;;;;;;;-1.15;100.00;102414.69;5275097;28;20761;-75
2023/01/26 00:49:10;;;;;;;92.60;51.47;;;;;;;-1.02;100.00;102405.47;5271932;28;20518;-72
2023/01/26 00:51:41;;;;;;;88.90;49.80;;;;;;;-1.05;100.00;102399.41;5271155;28;20077;-76
2023/01/26 00:54:13;;;;;;;93.27;51.67;;;;;;;-1.06;100.00;102388.25;5272988;28;20689;-73
2023/01/26 00:56:44;;;;;;;94.13;52.67;;;;;;;-1.05;100.00;102399.41;5272932;28;20032;-75
2023/01/26 00:59:15;;;;;;;93.10;52.93;;;;;;;-0.96;100.00;102390.97;5272761;28;20070;-77
2023/01/26 01:01:47;;;;;;;97.57;52.17;;;;;;;-1.19;100.00;102392.38;5273116;28;20028;-75
2023/01/26 01:04:19;;;;;;;88.80;49.20;;;;;;;-1.05;100.00;102389.13;5290504;28;20035;-72
2023/01/26 01:06:50;;;;;;;91.07;50.17;;;;;;;-1.13;100.00;102371.00;5274464;28;20037;-76
2023/01/26 01:09:22;;;;;;;85.87;47.50;;;;;;;-1.05;100.00;102383.97;5272541;28;20041;-75
2023/01/26 01:11:53;;;;;;;83.47;48.80;;;;;;;-1.08;100.00;102394.22;5272353;28;20032;-75
2023/01/26 01:14:24;;;;;;;89.67;50.63;;;;;;;-1.04;100.00;102378.84;5273586;28;20035;-72
2023/01/26 01:16:56;;;;;;;88.10;50.70;;;;;;;-1.14;100.00;102372.72;5274227;28;20028;-74
2023/01/26 01:19:27;;;;;;;87.83;49.93;;;;;;;-1.27;100.00;102379.38;5273571;28;20078;-72
2023/01/26 01:21:58;;;;;;;89.00;49.63;;;;;;;-1.19;100.00;102382.09;5272744;28;20043;-73
2023/01/26 01:24:30;;;;;;;84.50;48.50;;;;;;;-1.10;100.00;102383.94;5274137;28;20064;-76
2023/01/26 01:27:16;;;;;;;85.93;47.97;;;;;;;-1.12;100.00;102390.75;5346198;22;20094;-72
2023/01/26 01:29:49;;;;;;;82.60;46.17;;;;;;;-1.17;100.00;102376.97;5254173;28;20095;-76
2023/01/26 01:32:20;;;;;;;87.40;50.27;;;;;;;-1.10;100.00;102377.06;5256660;28;20291;-76
2023/01/26 01:34:52;;;;;;;87.37;48.87;;;;;;;-1.03;100.00;102372.84;5256616;28;20531;-75
2023/01/26 01:37:23;;;;;;;91.10;51.00;;;;;;;-1.23;100.00;102376.03;5257272;28;20112;-77
2023/01/26 01:39:54;;;;;;;79.83;47.20;;;;;;;-1.34;100.00;102375.88;5257533;28;20037;-75
2023/01/26 01:42:26;;;;;;;84.37;49.30;;;;;;;-1.24;100.00;102365.72;5256802;28;20116;-75
2023/01/26 01:45:19;;;;;;;84.27;46.93;;;;;;;-1.09;100.00;102388.22;5258691;28;20029;-76
2023/01/26 01:47:53;;;;;;;81.70;48.17;;;;;;;-1.06;100.00;102377.97;5254663;28;20549;-75
2023/01/26 01:50:26;;;;;;;79.22;44.88;;;;;;;-1.06;100.00;102377.97;5256552;28;20033;-71
2023/01/26 01:52:57;;;;;;;87.53;48.93;;;;;;;-1.00;100.00;102378.06;5257179;28;20033;-75
2023/01/26 01:55:29;;;;;;;84.03;47.57;;;;;;;-0.94;100.00;102387.56;5257293;28;20036;-76
2023/01/26 01:58:03;;;;;;;79.83;45.70;;;;;;;-0.88;100.00;102385.09;5255349;28;20387;-74
2023/01/26 02:00:34;;;;;;;82.53;46.88;;;;;;;-0.89;100.00;102385.91;5256133;28;20119;-72
2023/01/26 02:03:10;;;;;;;78.87;45.90;;;;;;;-0.99;100.00;102364.34;5252300;28;20105;-75
2023/01/26 02:06:02;;;;;;;81.57;45.43;;;;;;;-0.86;100.00;102370.53;5254319;28;20021;-76
2023/01/26 02:08:54;;;;;;;79.27;43.93;;;;;;;-0.82;100.00;102373.16;5254856;28;20036;-76
2023/01/26 02:11:43;;;;;;;78.70;44.33;;;;;;;-0.92;100.00;102377.28;5255087;28;20057;-76
2023/01/26 02:14:15;;;;;;;77.80;44.77;;;;;;;-0.86;100.00;102374.81;5254103;28;20338;-74
2023/01/26 02:16:46;;;;;;;80.60;43.90;;;;;;;-0.94;100.00;102354.13;5255315;28;20058;-76
2023/01/26 02:19:26;;;;;;;79.70;45.27;;;;;;;-0.79;100.00;102360.31;5253766;28;20033;-76
2023/01/26 02:22:06;;;;;;;82.20;46.83;;;;;;;-0.78;100.00;102357.75;5254015;28;20144;-77
2023/01/26 02:24:39;;;;;;;74.00;43.17;;;;;;;-0.88;100.00;102345.63;5256738;28;20061;-76
2023/01/26 02:27:10;;;;;;;78.97;42.13;;;;;;;-0.91;100.00;102337.88;5252072;28;20071;-73
2023/01/26 02:29:41;;;;;;;80.37;46.53;;;;;;;-0.79;100.00;102360.31;5276133;28;20068;-75
2023/01/26 02:32:13;;;;;;;77.23;45.43;;;;;;;-0.80;100.00;102351.72;5277531;28;20473;-77
2023/01/26 02:34:44;;;;;;;81.63;47.27;;;;;;;-0.74;100.00;102356.97;5277279;28;20036;-74
2023/01/26 02:37:15;;;;;;;80.97;46.00;;;;;;;-0.79;100.00;102353.47;5259475;28;20123;-75
2023/01/26 02:39:55;;;;;;;76.90;43.43;;;;;;;-0.77;100.00;102351.75;5259253;28;20027;-77
2023/01/26 02:42:40;;;;;;;83.43;46.97;;;;;;;-0.75;100.00;102354.38;5258489;28;20477;-76
2023/01/26 02:45:14;;;;;;;78.87;45.37;;;;;;;-0.76;100.00;102348.34;5277282;28;20052;-76
2023/01/26 02:47:45;;;;;;;75.75;44.50;;;;;;;-0.93;100.00;102339.56;5277551;28;20482;-75
2023/01/26 02:50:17;;;;;;;79.53;45.07;;;;;;;-0.81;100.00;102352.56;5277049;28;20070;-76
2023/01/26 02:52:48;;;;;;;77.07;41.73;;;;;;;-0.77;100.00;102340.63;5276949;28;20474;-72
2023/01/26 02:55:23;;;;;;;75.97;43.83;;;;;;;-0.75;100.00;102350.06;5277375;28;20509;-76
2023/01/26 02:57:58;;;;;;;77.07;43.57;;;;;;;-0.69;100.00;102345.84;5257052;28;20024;-76
2023/01/26 03:00:35;;;;;;;72.10;41.58;;;;;;;-0.69;100.00;102349.28;5276155;28;20040;-74
2023/01/26 03:03:15;;;;;;;78.30;44.43;;;;;;;-0.68;100.00;102345.84;5276347;28;20020;-77
2023/01/26 03:05:47;;;;;;;84.37;45.17;;;;;;;-0.69;100.00;102341.56;5273052;28;20483;-73
2023/01/26 03:08:18;;;;;;;80.33;43.90;;;;;;;-0.75;100.00;102332.06;5237964;28;20032;-77
2023/01/26 03:10:50;;;;;;;75.87;44.87;;;;;;;-0.62;100.00;102337.34;5237743;28;20032;-76
2023/01/26 03:13:21;;;;;;;71.20;41.37;;;;;;;-0.63;100.00;102341.63;5275325;28;20471;-75
2023/01/26 03:15:53;;;;;;;71.00;40.40;;;;;;;-0.65;100.00;102329.59;5280148;28;20116;-77
2023/01/26 03:29:50;;;;;;;64.07;39.53;;;;;;;-0.64;100.00;102329.63;5279663;28;20041;-77
2023/01/26 03:32:22;;;;;;;64.83;40.67;;;;;;;-0.65;100.00;102327.91;5280368;28;20351;-77
2023/01/26 03:34:54;;;;;;;67.47;39.40;;;;;;;-0.70;100.00;102329.56;5279640;28;20027;-73
2023/01/26 03:37:25;;;;;;;68.20;39.80;;;;;;;-0.59;100.00;102334.81;5280345;28;20115;-77
2023/01/26 03:56:56;;;;;;;62.73;36.30;;;;;;;-0.63;100.00;102320.19;5278665;28;20037;-78
2023/01/26 03:59:47;;;;;;;62.63;37.30;;;;;;;-0.54;100.00;102327.16;5279497;28;20295;-76
2023/01/26 04:08:25;;;;;;;62.63;35.97;;;;;;;-0.55;100.00;102310.84;5278390;28;20036;-76
2023/01/26 04:10:57;;;;;;;63.43;38.13;;;;;;;-0.52;100.00;102312.56;5274790;28;20471;-77
2023/01/26 04:21:59;;;;;;;55.33;33.70;;;;;;;-0.61;100.00;102308.19;5279077;28;20041;-75
2023/01/26 04:24:30;;;;;;;58.67;34.00;;;;;;;-0.58;100.00;102315.97;5278035;28;20112;-74
2023/01/26 04:27:02;;;;;;;60.50;35.77;;;;;;;-0.55;100.00;102320.25;5274324;28;20107;-77
2023/01/26 04:29:33;;;;;;;60.90;34.43;;;;;;;-0.54;100.00;102317.69;5277156;28;20083;-72
2023/01/26 04:32:04;;;;;;;59.50;32.93;;;;;;;-0.53;100.00;102310.84;5278464;28;20090;-75
2023/01/26 04:34:35;;;;;;;60.10;32.80;;;;;;;-0.48;100.00;102319.47;5278910;28;20040;-75
2023/01/26 04:37:08;;;;;;;62.43;35.20;;;;;;;-0.56;100.00;102301.38;5277988;28;20043;-76
2023/01/26 04:39:39;;;;;;;54.27;30.30;;;;;;;-0.50;100.00;102316.03;5278527;28;20036;-75
2023/01/26 04:42:10;;;;;;;51.50;29.90;;;;;;;-0.44;100.00;102317.81;5276452;28;20348;-76
2023/01/26 04:44:42;;;;;;;54.40;31.50;;;;;;;-0.49;100.00;102307.47;5278375;28;20032;-77
2023/01/26 04:47:13;;;;;;;55.43;31.40;;;;;;;-0.42;100.00;102316.13;5278052;28;20032;-77
2023/01/26 04:49:45;;;;;;;56.63;33.00;;;;;;;-0.41;100.00;102317.84;5277485;28;20086;-73
2023/01/26 04:52:16;;;;;;;59.20;30.93;;;;;;;-0.44;100.00;102310.97;5261206;28;20028;-77
2023/01/26 04:54:48;;;;;;;52.37;30.03;;;;;;;-0.35;100.00;102317.03;5277852;28;20067;-78
2023/01/26 04:57:20;;;;;;;56.13;29.13;;;;;;;-0.37;100.00;102319.59;5277528;28;20471;-77
2023/01/26 04:59:51;;;;;;;51.60;30.43;;;;;;;-0.38;100.00;102310.13;5277104;28;20036;-77
2023/01/26 05:02:22;;;;;;;58.00;30.97;;;;;;;-0.35;100.00;102314.47;5277417;28;20085;-78
2023/01/26 05:04:53;;;;;;;53.97;29.90;;;;;;;-0.41;100.00;102305.84;5277684;28;20028;-76
2023/01/26 05:07:25;;;;;;;50.33;27.37;;;;;;;-0.33;100.00;102316.19;5259463;28;20063;-72
2023/01/26 05:09:56;;;;;;;50.47;26.03;;;;;;;-0.35;100.00;102314.47;5276992;28;20363;-76
2023/01/26 05:12:33;;;;;;;52.83;30.17;;;;;;;-0.30;100.00;102318.81;5276247;28;20397;-73
2023/01/26 05:15:05;;;;;;;48.07;28.23;;;;;;;-0.29;100.00;102315.38;5261463;28;20029;-77
2023/01/26 05:17:36;;;;;;;53.67;28.60;;;;;;;-0.28;100.00;102317.09;5277338;28;20037;-76
2023/01/26 05:20:08;;;;;;;48.83;27.77;;;;;;;-0.33;100.00;102298.16;5277181;28;20405;-74
2023/01/26 05:22:40;;;;;;;47.77;25.50;;;;;;;-0.22;100.00;102310.28;5277914;28;20429;-76
2023/01/26 05:25:11;;;;;;;42.43;25.53;;;;;;;-0.30;100.00;102317.94;5277956;28;20032;-77
2023/01/26 05:27:42;;;;;;;46.73;25.50;;;;;;;-0.22;100.00;102315.44;5258339;28;20044;-74
2023/01/26 05:30:14;;;;;;;46.03;25.90;;;;;;;-0.25;100.00;102312.00;5259498;28;20047;-77
2023/01/26 05:32:46;;;;;;;43.47;26.20;;;;;;;-0.38;100.00;102289.53;5276763;28;20023;-76
2023/01/26 05:35:17;;;;;;;46.30;25.23;;;;;;;-0.26;100.00;102312.84;5258558;28;20032;-77
2023/01/26 05:37:48;;;;;;;49.83;25.03;;;;;;;-0.17;100.00;102318.91;5277184;28;20620;-75
2023/01/26 05:40:20;;;;;;;46.37;26.33;;;;;;;-0.17;100.00;102321.50;5278130;28;20359;-76
2023/01/26 05:42:52;;;;;;;43.53;25.00;;;;;;;-0.31;100.00;102295.59;5276215;28;20046;-77
2023/01/26 05:45:24;;;;;;;42.27;24.23;;;;;;;-0.18;100.00;102307.78;5277977;28;20037;-74
2023/01/26 05:47:55;;;;;;;41.40;24.27;;;;;;;-0.14;100.00;102321.53;5276214;28;20036;-76
2023/01/26 05:50:27;;;;;;;43.17;24.50;;;;;;;-0.17;100.00;102318.91;5276208;28;20039;-78
2023/01/26 05:52:59;;;;;;;39.97;24.30;;;;;;;-0.18;100.00;102317.19;5275053;28;20013;-77
2023/01/26 05:55:31;;;;;;;42.07;23.67;;;;;;;-0.20;100.00;102313.75;5276128;28;20020;-76
2023/01/26 05:58:02;;;;;;;43.20;24.73;;;;;;;-0.13;100.00;102325.81;5275855;28;20025;-77
2023/01/26 06:00:33;;;;;;;47.17;27.10;;;;;;;-0.12;100.00;102327.53;5259911;28;20414;-77
2023/01/26 06:03:05;;;;;;;43.50;24.67;;;;;;;-0.16;100.00;102320.66;5277340;28;20367;-74
2023/01/26 06:05:37;;;;;;;44.33;25.30;;;;;;;-0.20;100.00;102300.88;5277433;28;20025;-78
2023/01/26 06:08:09;;;;;;;42.70;24.77;;;;;;;-0.13;100.00;102323.25;5259100;28;20029;-76
2023/01/26 06:10:40;;;;;;;47.63;26.67;;;;;;;-0.14;100.00;102324.13;5278057;28;20032;-77
2023/01/26 06:13:11;;;;;;;44.10;24.47;;;;;;;-0.17;100.00;102319.78;5276666;28;20091;-77
2023/01/26 06:15:42;;;;;;;42.03;23.40;;;;;;;-0.12;100.00;102332.69;5277748;28;20025;-78
2023/01/26 06:18:14;;;;;;;43.87;23.60;;;;;;;-0.10;100.00;102336.16;5277716;28;20036;-78
2023/01/26 06:20:45;;;;;;;43.10;24.00;;;;;;;-0.07;100.00;102351.63;5275280;28;20078;-72
2023/01/26 06:23:16;;;;;;;43.30;23.53;;;;;;;-0.04;100.00;102345.66;5275795;28;20021;-77
2023/01/26 06:25:47;;;;;;;43.03;23.33;;;;;;;-0.03;100.00;102337.06;5275167;28;20051;-76
2023/01/26 06:28:19;;;;;;;41.43;22.50;;;;;;;-0.03;100.00;102334.50;5275141;28;20051;-76
2023/01/26 06:30:50;;;;;;;43.30;25.07;;;;;;;-0.01;100.00;102331.09;5275918;28;20036;-76
2023/01/26 06:33:21;;;;;;;42.60;22.63;;;;;;;-0.06;100.00;102327.63;5276844;28;20036;-75
2023/01/26 06:35:53;;;;;;;46.07;23.33;;;;;;;-0.03;100.00;102332.78;5275989;28;20024;-78
2023/01/26 06:38:24;;;;;;;40.70;22.67;;;;;;;-0.03;100.00;102337.94;5276137;28;20029;-76
2023/01/26 06:41:01;;;;;;;40.53;21.10;;;;;;;0.01;100.00;102335.38;5275833;28;20376;-76
2023/01/26 06:43:34;;;;;;;40.43;20.63;;;;;;;-0.04;100.00;102336.22;5275832;28;20028;-73
2023/01/26 06:46:06;;;;;;;40.97;22.70;;;;;;;-0.01;100.00;102340.53;5275945;28;20093;-77
2023/01/26 06:48:37;;;;;;;43.73;23.00;;;;;;;0.02;100.00;102347.44;5277942;28;20298;-74
2023/01/26 06:51:14;;;;;;;39.73;22.87;;;;;;;0.02;100.00;102344.84;5280686;28;20403;-78
2023/01/26 06:53:53;;;;;;;40.50;22.37;;;;;;;0.01;100.00;102348.25;5280799;28;20063;-76
2023/01/26 06:56:27;;;;;;;34.73;19.07;;;;;;;-0.06;100.00;102337.91;5262982;28;20533;-74
2023/01/26 06:58:58;;;;;;;41.03;23.88;;;;;;;0.01;100.00;102344.00;5280427;28;20044;-76
2023/01/26 07:01:35;;;;;;;42.23;23.80;;;;;;;0.06;100.00;102347.47;5280441;28;20526;-76
2023/01/26 07:04:06;;;;;;;44.13;23.13;;;;;;;0.06;100.00;102347.47;5281072;28;20027;-77
2023/01/26 07:06:37;;;;;;;39.77;21.17;;;;;;;0.07;100.00;102351.75;5280429;28;20028;-77
2023/01/26 07:09:10;;;;;;;41.03;22.20;;;;;;;0.04;100.00;102340.56;5278339;28;20056;-76
2023/01/26 07:11:41;;;;;;;41.20;23.07;;;;;;;-0.01;100.00;102333.66;5261172;28;20043;-70
2023/01/26 07:14:12;;;;;;;42.60;21.90;;;;;;;0.07;100.00;102349.19;5279997;28;20024;-78
2023/01/26 07:16:43;;;;;;;40.47;23.07;;;;;;;0.02;100.00;102344.84;5279285;28;20116;-76
2023/01/26 07:19:17;;;;;;;38.40;21.50;;;;;;;0.09;100.00;102356.91;5279903;28;20524;-71
2023/01/26 07:21:48;;;;;;;40.53;21.00;;;;;;;0.09;100.00;102351.75;5257517;28;20045;-73
2023/01/26 07:24:20;;;;;;;38.60;20.77;;;;;;;-0.08;100.00;102357.63;5277306;28;20310;-75
2023/01/26 07:26:51;;;;;;;42.60;21.27;;;;;;;0.13;100.00;102363.84;5276818;28;20056;-76
2023/01/26 07:29:24;;;;;;;44.20;22.83;;;;;;;0.16;100.00;102363.84;5276835;28;20087;-77
2023/01/26 07:31:55;;;;;;;41.37;23.17;;;;;;;0.15;100.00;102356.13;5275238;28;20533;-76
2023/01/26 07:34:27;;;;;;;41.47;22.50;;;;;;;0.18;100.00;102357.00;5262302;28;20033;-76
2023/01/26 07:36:58;;;;;;;43.20;22.97;;;;;;;0.18;100.00;102362.16;5278383;28;20111;-74
2023/01/26 07:39:30;;;;;;;44.17;24.33;;;;;;;0.11;100.00;102357.81;5280367;28;20638;-77
2023/01/26 07:42:01;;;;;;;45.47;24.83;;;;;;;0.18;100.00;102362.16;5277424;28;20044;-76
2023/01/26 07:44:33;;;;;;;43.60;23.87;;;;;;;0.22;100.00;102361.34;5261116;28;20024;-77
2023/01/26 07:47:04;;;;;;;41.77;21.83;;;;;;;0.20;100.00;102360.47;5277943;28;20132;-72
2023/01/26 07:49:35;;;;;;;42.80;22.93;;;;;;;0.24;100.00;102363.94;5270340;28;20045;-74
2023/01/26 07:52:08;;;;;;;46.17;23.40;;;;;;;0.17;100.00;102354.41;5271115;28;20119;-77
2023/01/26 07:54:39;;;;;;;41.77;23.10;;;;;;;0.27;100.00;102370.81;5276928;28;20441;-76
2023/01/26 07:57:11;;;;;;;43.60;22.67;;;;;;;0.17;100.00;102369.88;5275862;28;20025;-76
2023/01/26 07:59:42;;;;;;;42.07;22.07;;;;;;;0.14;100.00;102372.44;5278329;28;20501;-74
2023/01/26 08:02:13;;;;;;;45.93;25.10;;;;;;;0.21;100.00;102382.78;5278826;28;20023;-72
2023/01/26 08:04:45;;;;;;;49.63;24.53;;;;;;;0.20;100.00;102393.97;5277869;28;20233;-71
2023/01/26 08:07:16;;;;;;;46.63;23.60;;;;;;;0.20;100.00;102388.81;5277811;28;20115;-73
2023/01/26 08:09:48;;;;;;;45.27;23.40;;;;;;;0.22;100.00;102379.38;5276673;28;20032;-73
2023/01/26 08:12:19;;;;;;;47.90;24.90;;;;;;;0.22;100.00;102384.53;5277591;28;20078;-73
2023/01/26 08:14:51;;;;;;;44.70;23.93;;;;;;;0.28;100.00;102388.03;5277783;28;20017;-74
2023/01/26 08:17:22;;;;;;;43.83;23.43;;;;;;;0.27;100.00;102386.28;5278803;28;20024;-72
2023/01/26 08:19:53;;;;;;;45.87;23.43;;;;;;;0.28;100.00;102386.28;5277562;28;20025;-73
2023/01/26 08:22:25;;;;;;;43.77;23.00;;;;;;;0.34;100.00;102388.06;5278076;28;20062;-74
2023/01/26 08:24:56;;;;;;;47.07;22.97;;;;;;;0.38;100.00;102394.97;5278257;28;20025;-75
2023/01/26 08:27:27;;;;;;;49.33;23.53;;;;;;;0.35;100.00;102387.19;5277108;28;20029;-74
2023/01/26 08:29:59;;;;;;;51.80;23.80;;;;;;;0.37;100.00;102403.53;5276035;28;20040;-74
2023/01/26 08:32:30;;;;;;;51.17;24.80;;;;;;;0.30;100.00;102373.41;5276809;28;20029;-75
2023/01/26 08:35:02;;;;;;;45.40;24.57;;;;;;;0.38;100.00;102389.81;5276981;28;20034;-73
2023/01/26 08:37:33;;;;;;;48.00;23.40;;;;;;;0.37;100.00;102392.41;5277337;28;20426;-73
2023/01/26 08:40:05;;;;;;;49.27;25.27;;;;;;;0.42;100.00;102401.03;5276585;28;20023;-69
2023/01/26 08:42:36;;;;;;;47.13;24.10;;;;;;;0.38;100.00;102405.28;5276887;28;20028;-74
2023/01/26 08:45:08;;;;;;;45.37;24.93;;;;;;;0.28;100.00;102398.34;5275597;28;20044;-76
2023/01/26 08:47:39;;;;;;;48.93;23.83;;;;;;;0.40;100.00;102406.13;5275801;28;20025;-73
2023/01/26 08:50:11;;;;;;;45.23;22.90;;;;;;;0.37;100.00;102393.22;5276644;28;20032;-74
2023/01/26 08:52:42;;;;;;;53.97;28.73;;;;;;;0.45;100.00;102404.50;5275712;28;20025;-75
2023/01/26 08:55:14;;;;;;;52.77;25.80;;;;;;;0.37;100.00;102388.06;5276904;28;20571;-75
2023/01/26 08:57:45;;;;;;;52.57;27.00;;;;;;;0.37;100.00;102411.28;5275753;28;20040;-71
2023/01/26 09:00:17;;;;;;;50.73;24.03;;;;;;;0.41;100.00;102413.03;5259088;28;20032;-75
2023/01/26 09:02:49;;;;;;;56.03;25.80;;;;;;;0.45;100.00;102408.78;5275312;28;20033;-75
2023/01/26 09:05:20;;;;;;;52.37;25.40;;;;;;;0.46;100.00;102403.63;5276570;28;20032;-72
2023/01/26 09:07:51;;;;;;;48.27;24.63;;;;;;;0.39;100.00;102404.44;5276243;28;20119;-74
2023/01/26 09:10:23;;;;;;;53.13;26.07;;;;;;;0.54;100.00;102410.56;5276771;28;20032;-74
2023/01/26 09:12:56;;;;;;;55.33;26.07;;;;;;;0.53;100.00;102407.13;5275340;28;20021;-74
2023/01/26 09:15:27;;;;;;;51.63;24.90;;;;;;;0.42;100.00;102390.72;5276593;28;20078;-72
2023/01/26 09:17:59;;;;;;;60.63;27.63;;;;;;;0.54;100.00;102408.00;5276138;28;20032;-76
2023/01/26 09:20:30;;;;;;;53.67;26.33;;;;;;;0.59;100.00;102414.03;5275107;28;20025;-76
2023/01/26 09:23:01;;;;;;;59.90;25.43;;;;;;;0.57;100.00;102406.31;5276720;28;20028;-73
2023/01/26 09:25:36;;;;;;;57.77;27.53;;;;;;;0.62;100.00;102416.63;5269901;28;20116;-74
2023/01/26 09:28:07;;;;;;;52.83;26.58;;;;;;;0.61;100.00;102414.94;5252989;28;20592;-73
2023/01/26 09:30:39;;;;;;;61.40;27.30;;;;;;;0.52;100.00;102409.69;5255359;28;20064;-74
2023/01/26 09:33:10;;;;;;;57.83;26.80;;;;;;;0.49;100.00;102413.09;5255686;28;20025;-73
2023/01/26 09:35:41;;;;;;;67.70;28.67;;;;;;;0.51;100.00;102400.25;5254104;28;20029;-72
2023/01/26 09:38:13;;;;;;;64.03;26.60;;;;;;;0.63;100.00;102420.94;5252493;28;20032;-69
2023/01/26 09:41:06;;;;;;;55.50;26.60;;;;;;;0.57;100.00;102405.44;5253224;28;20039;-73
2023/01/26 09:43:51;;;;;;;59.73;28.40;;;;;;;0.71;100.00;102427.03;5256112;28;20029;-73
2023/01/26 09:46:51;;;;;;;74.00;28.87;;;;;;;0.60;100.00;102426.94;5255876;28;20033;-75
2023/01/26 09:49:28;;;;;;;62.57;29.83;;;;;;;0.71;100.00;102424.47;5254003;28;20383;-74
2023/01/26 09:52:09;;;;;;;64.80;29.33;;;;;;;0.76;100.00;102426.19;5254882;28;20029;-77
2023/01/26 09:54:48;;;;;;;57.30;26.70;;;;;;;0.77;100.00;102415.88;5255652;28;20036;-76
2023/01/26 09:57:42;;;;;;;63.03;29.47;;;;;;;0.76;100.00;102421.91;5253786;28;20021;-74
2023/01/26 10:00:51;;;;;;;53.10;24.53;;;;;;;0.82;100.00;102423.66;5255314;28;20029;-78
2023/01/26 10:03:31;;;;;;;57.17;26.30;;;;;;;0.77;100.00;102415.03;5212713;28;20476;-75
2023/01/26 10:06:38;;;;;;;58.33;24.97;;;;;;;0.80;100.00;102422.78;5254097;28;20476;-77
2023/01/26 10:09:23;;;;;;;59.53;27.90;;;;;;;0.79;100.00;102428.78;5210296;28;20026;-77
2023/01/26 10:11:59;;;;;;;63.07;26.60;;;;;;;0.78;100.00;102412.47;5249166;28;20095;-76
2023/01/26 10:14:38;;;;;;;67.63;28.53;;;;;;;0.85;100.00;102415.94;5250443;28;20701;-76
2023/01/26 10:17:24;;;;;;;59.90;26.17;;;;;;;0.91;100.00;102418.56;5251596;28;20025;-76
2023/01/26 10:20:05;;;;;;;61.37;25.90;;;;;;;0.93;100.00;102427.16;5249254;28;20504;-75
2023/01/26 10:22:44;;;;;;;62.13;27.40;;;;;;;0.98;100.00;102416.88;5253621;28;20111;-73
2023/01/26 10:25:19;;;;;;;62.83;25.93;;;;;;;0.96;100.00;102414.28;5258029;28;20052;-76
2023/01/26 10:27:51;;;;;;;72.70;28.83;;;;;;;0.98;100.00;102411.69;5256148;28;20519;-75
2023/01/26 10:30:22;;;;;;;64.97;29.57;;;;;;;0.95;100.00;102414.28;5258933;28;20040;-76
2023/01/26 10:32:55;;;;;;;66.00;31.10;;;;;;;0.94;100.00;102417.72;5257886;28;20017;-72
2023/01/26 10:35:26;;;;;;;67.10;31.33;;;;;;;1.02;100.00;102417.75;5258759;28;20033;-76
2023/01/26 10:37:57;;;;;;;73.53;31.53;;;;;;;1.04;100.00;102410.88;5258018;28;20025;-76
2023/01/26 10:40:29;;;;;;;69.53;31.00;;;;;;;0.93;100.00;102393.63;5259000;28;20111;-73
2023/01/26 10:43:00;;;;;;;70.37;30.37;;;;;;;1.01;100.00;102421.19;5255976;28;20025;-76
2023/01/26 10:45:32;;;;;;;72.53;30.07;;;;;;;1.07;100.00;102428.97;5257482;28;20037;-77
2023/01/26 10:48:21;;;;;;;65.43;30.03;;;;;;;1.15;100.00;102421.28;5258042;28;20086;-75
2023/01/26 10:50:53;;;;;;;67.60;29.67;;;;;;;1.07;100.00;102426.38;5257317;28;20047;-73
2023/01/26 10:53:28;;;;;;;81.90;31.40;;;;;;;1.21;100.00;102418.72;5259435;28;20713;-76
2023/01/26 10:56:08;;;;;;;79.97;32.57;;;;;;;1.24;100.00;102423.88;5256603;28;20016;-74
2023/01/26 10:58:45;;;;;;;69.80;31.03;;;;;;;1.26;100.00;102427.34;5258386;28;20064;-75
2023/01/26 11:01:21;;;;;;;78.97;31.13;;;;;;;1.25;100.00;102424.75;5258833;28;20024;-76
2023/01/26 11:04:03;;;;;;;79.67;31.27;;;;;;;1.39;100.00;102424.81;5257781;28;20106;-75
2023/01/26 11:06:35;;;;;;;90.63;33.23;;;;;;;1.39;100.00;102417.94;5258526;28;20029;-76
2023/01/26 11:09:23;;;;;;;76.90;30.67;;;;;;;1.46;100.00;102418.84;5257828;28;20040;-76
2023/01/26 11:12:00;;;;;;;77.80;33.57;;;;;;;1.41;100.00;102416.25;5257306;28;20037;-76
2023/01/26 11:14:32;;;;;;;79.37;30.80;;;;;;;1.55;100.00;102418.84;5256584;28;20104;-78
2023/01/26 11:17:22;;;;;;;76.70;33.87;;;;;;;1.56;100.00;102402.53;5256094;28;20443;-77
2023/01/26 11:20:31;;;;;;;70.23;29.60;;;;;;;1.69;100.00;102413.72;5257855;28;20104;-77
2023/01/26 11:23:41;;;;;;;81.97;30.27;;;;;;;1.78;100.00;102412.06;5257443;28;20410;-72
2023/01/26 11:26:46;;;;;;;95.37;32.60;;;;;;;1.75;100.00;102419.78;5257453;28;20028;-74
2023/01/26 11:29:26;;;;;;;89.23;30.03;;;;;;;1.87;100.00;102419.81;5274562;28;20048;-76
2023/01/26 11:32:37;;;;;;;85.17;29.70;;;;;;;1.91;100.00;102412.94;5277547;28;20029;-70
2023/01/26 11:35:35;;;;;;;81.00;30.07;;;;;;;1.95;100.00;102417.25;5278086;28;20055;-73
2023/01/26 11:38:26;;;;;;;79.43;29.60;;;;;;;2.04;100.00;102419.00;5278201;28;20464;-72
2023/01/26 11:41:07;;;;;;;80.13;28.97;;;;;;;2.04;100.00;102421.59;5277667;28;20520;-71
2023/01/26 11:44:05;;;;;;;78.70;27.37;;;;;;;2.16;100.00;102416.41;5278116;28;20031;-72
2023/01/26 11:46:54;;;;;;;74.17;28.67;;;;;;;2.24;100.00;102406.09;5276396;28;20107;-72
2023/01/26 11:49:40;;;;;;;83.77;29.27;;;;;;;2.33;100.00;102404.38;5278730;28;20032;-78
2023/01/26 11:52:16;;;;;;;76.07;28.30;;;;;;;2.33;100.00;102389.72;5277531;28;20028;-73
2023/01/26 11:54:59;;;;;;;81.07;27.57;;;;;;;2.41;100.00;102398.34;5277657;28;20055;-74
2023/01/26 11:57:33;;;;;;;75.93;26.43;;;;;;;2.47;100.00;102384.53;5273814;28;20040;-75
2023/01/26 12:00:11;;;;;;;81.43;30.02;;;;;;;2.55;100.00;102392.28;5277459;28;20032;-74
2023/01/26 12:02:56;;;;;;;74.40;26.37;;;;;;;2.56;100.00;102390.56;5278062;28;20036;-74
2023/01/26 12:05:36;;;;;;;76.53;29.50;;;;;;;2.65;100.00;102378.47;5278246;28;20037;-74
2023/01/26 12:08:20;;;;;;;94.13;30.17;;;;;;;2.75;100.00;102381.91;5277836;28;20021;-74
2023/01/26 12:11:22;;;;;;;74.23;28.27;;;;;;;2.86;100.00;102370.69;5276347;28;20346;-70
2023/01/26 12:14:15;;;;;;;74.10;23.80;;;;;;;2.99;100.00;102384.44;5256909;28;20044;-75
2023/01/26 12:17:11;;;;;;;74.00;22.60;;;;;;;3.13;100.00;102374.03;5256655;28;20100;-75
2023/01/26 12:20:13;;;;;;;75.93;22.10;;;;;;;3.27;100.00;102371.41;5256581;28;20452;-76
2023/01/26 12:22:51;;;;;;;62.73;17.70;;;;;;;3.34;100.00;102367.91;5235874;28;20051;-75
2023/01/26 12:25:27;;;;;;;65.40;18.23;;;;;;;3.43;100.00;102366.16;5255929;28;20496;-75